createdAt,value
2023-01-30T00:00:46.363Z,1002.1
2023-01-30T00:01:47.404Z,1002.1
2023-01-30T00:02:48.320Z,1002.2
2023-01-30T00:03:49.320Z,1002
2023-01-30T00:04:50.407Z,1002.1
2023-01-30T00:05:51.342Z,1002
2023-01-30T00:06:52.314Z,1002.1
2023-01-30T00:07:53.332Z,1002
2023-01-30T00:08:54.302Z,1002
2023-01-30T00:09:55.292Z,1002
2023-01-30T00:10:56.319Z,1001.9
2023-01-30T00:11:57.360Z,1001.9
2023-01-30T00:12:58.340Z,1001.9
2023-01-30T00:13:59.340Z,1001.9
2023-01-30T00:15:00.347Z,1001.9
2023-01-30T00:16:01.394Z,1001.9
2023-01-30T00:17:02.374Z,1001.9
2023-01-30T00:18:03.346Z,1001.8
2023-01-30T00:19:04.362Z,1001.8
2023-01-30T00:20:05.363Z,1001.8
2023-01-30T00:21:06.379Z,1001.7
2023-01-30T00:22:07.347Z,1001.8
2023-01-30T00:23:08.359Z,1001.7
2023-01-30T00:24:09.341Z,1001.7
2023-01-30T00:25:10.423Z,1001.7
2023-01-30T00:26:11.642Z,1001.7
2023-01-30T00:27:13.379Z,1001.7
2023-01-30T00:28:14.364Z,1001.6
2023-01-30T00:29:15.340Z,1001.6
2023-01-30T00:30:16.688Z,1001.6
2023-01-30T00:31:17.420Z,1001.5
2023-01-30T00:32:18.322Z,1001.5
2023-01-30T00:33:19.362Z,1001.5
2023-01-30T00:34:20.373Z,1001.5
2023-01-30T00:35:21.342Z,1001.5
2023-01-30T00:36:22.359Z,1001.5
2023-01-30T00:37:23.341Z,1001.5
2023-01-30T00:38:24.350Z,1001.5
2023-01-30T00:39:25.374Z,1001.4
2023-01-30T00:40:26.354Z,1001.3
2023-01-30T00:41:27.364Z,1001.3
2023-01-30T00:42:28.341Z,1001.3
2023-01-30T00:43:29.343Z,1001.2
2023-01-30T00:44:30.379Z,1001.2
2023-01-30T00:45:31.388Z,1001.3
2023-01-30T00:46:32.343Z,1001.2
2023-01-30T00:47:33.370Z,1001.1
2023-01-30T00:48:34.400Z,1001.2
2023-01-30T00:49:35.360Z,1001.1
2023-01-30T00:50:36.381Z,1001.1
2023-01-30T00:51:37.345Z,1001
2023-01-30T00:52:38.304Z,1001
2023-01-30T00:53:39.381Z,1001
2023-01-30T00:54:40.355Z,1000.9
2023-01-30T00:55:41.426Z,1000.9
2023-01-30T00:56:42.381Z,1000.9
2023-01-30T00:57:43.362Z,1000.9
2023-01-30T00:58:44.376Z,1000.9
2023-01-30T00:59:45.383Z,1000.9
2023-01-30T01:00:46.361Z,1000.9
2023-01-30T01:01:47.369Z,1000.9
2023-01-30T01:02:48.404Z,1000.9
2023-01-30T01:03:49.362Z,1000.8
2023-01-30T01:04:50.359Z,1000.9
2023-01-30T01:05:51.364Z,1000.8
2023-01-30T01:06:52.369Z,1000.7
2023-01-30T01:07:53.365Z,1000.8
2023-01-30T01:08:54.354Z,1000.7
2023-01-30T01:09:55.341Z,1000.7
2023-01-30T01:10:56.312Z,1000.7
2023-01-30T01:11:57.377Z,1000.7
2023-01-30T01:12:58.454Z,1000.7
2023-01-30T01:13:59.367Z,1000.7
2023-01-30T01:15:00.420Z,1000.8
2023-01-30T01:16:01.394Z,1000.7
2023-01-30T01:17:02.361Z,1000.6
2023-01-30T01:18:03.421Z,1000.6
2023-01-30T01:19:04.393Z,1000.6
2023-01-30T01:20:09.399Z,1000.7
2023-01-30T01:21:10.406Z,1000.6
2023-01-30T01:22:11.343Z,1000.6
2023-01-30T01:23:12.361Z,1000.6
2023-01-30T01:24:13.360Z,1000.6
2023-01-30T01:25:14.443Z,1000.5
2023-01-30T01:26:15.526Z,1000.5
2023-01-30T01:27:16.401Z,1000.5
2023-01-30T01:28:17.341Z,1000.4
2023-01-30T01:29:18.325Z,1000.4
2023-01-30T01:30:19.388Z,1000.4
2023-01-30T01:31:20.418Z,1000.4
2023-01-30T01:32:21.462Z,1000.4
2023-01-30T01:33:22.401Z,1000.4
2023-01-30T01:34:23.381Z,1000.3
2023-01-30T01:35:24.405Z,1000.3
2023-01-30T01:36:50.256Z,1000.3
2023-01-30T01:37:26.420Z,1000.3
2023-01-30T01:38:27.332Z,1000.3
2023-01-30T01:39:28.360Z,1000.3
2023-01-30T01:40:29.381Z,1000.3
2023-01-30T01:41:30.327Z,1000.2
2023-01-30T01:42:31.361Z,1000.3
2023-01-30T01:43:32.361Z,1000.3
2023-01-30T01:44:33.361Z,1000.2
2023-01-30T01:45:34.438Z,1000.2
2023-01-30T01:46:35.363Z,1000.2
2023-01-30T01:47:36.364Z,1000.1
2023-01-30T01:48:37.401Z,1000.2
2023-01-30T01:49:38.381Z,1000.2
2023-01-30T01:50:39.402Z,1000.2
2023-01-30T01:51:40.402Z,1000.1
2023-01-30T01:52:41.442Z,1000.1
2023-01-30T01:53:42.379Z,1000
2023-01-30T01:54:43.421Z,1000
2023-01-30T01:55:44.355Z,1000
2023-01-30T01:56:45.381Z,1000
2023-01-30T01:57:46.463Z,999.9
2023-01-30T01:58:47.402Z,1000
2023-01-30T01:59:48.402Z,1000
2023-01-30T02:00:49.474Z,999.9
2023-01-30T02:01:50.441Z,1000
2023-01-30T02:02:51.461Z,1000
2023-01-30T02:06:01.611Z,999.9
2023-01-30T02:07:02.381Z,999.9
2023-01-30T02:08:03.407Z,999.8
2023-01-30T02:09:04.317Z,999.8
2023-01-30T02:10:05.339Z,999.8
2023-01-30T02:11:06.402Z,999.8
2023-01-30T02:12:07.397Z,999.7
2023-01-30T02:13:08.417Z,999.8
2023-01-30T02:14:09.379Z,999.8
2023-01-30T02:15:10.377Z,999.7
2023-01-30T02:16:11.444Z,999.6
2023-01-30T02:17:12.367Z,999.6
2023-01-30T02:18:13.433Z,999.5
2023-01-30T02:19:14.328Z,999.6
2023-01-30T02:20:15.425Z,999.5
2023-01-30T02:21:16.396Z,999.4
2023-01-30T02:22:17.356Z,999.3
2023-01-30T02:23:18.391Z,999.3
2023-01-30T02:24:19.385Z,999.3
2023-01-30T02:25:20.737Z,999.3
2023-01-30T02:26:21.402Z,999.2
2023-01-30T02:27:22.375Z,999.2
2023-01-30T02:28:23.419Z,998.4
2023-01-30T02:29:24.398Z,999
2023-01-30T02:30:25.447Z,999.1
2023-01-30T02:31:26.569Z,999.1
2023-01-30T02:32:27.380Z,999
2023-01-30T02:33:28.378Z,999.1
2023-01-30T02:34:29.437Z,999
2023-01-30T02:35:30.436Z,999
2023-01-30T02:36:31.417Z,998.9
2023-01-30T02:37:32.397Z,998.9
2023-01-30T02:38:33.342Z,999
2023-01-30T02:39:34.470Z,998.9
2023-01-30T02:40:35.458Z,998.9
2023-01-30T02:41:36.405Z,998.9
2023-01-30T02:42:37.437Z,998.9
2023-01-30T02:43:38.377Z,998.9
2023-01-30T02:44:39.418Z,998.9
2023-01-30T02:45:40.468Z,998.8
2023-01-30T02:46:41.417Z,998.8
2023-01-30T02:47:42.364Z,998.8
2023-01-30T02:48:43.408Z,998.7
2023-01-30T02:49:44.436Z,998.8
2023-01-30T02:50:45.406Z,998.7
2023-01-30T02:51:46.436Z,998.7
2023-01-30T02:52:47.364Z,998.7
2023-01-30T02:53:48.365Z,998.5
2023-01-30T02:54:49.416Z,998.4
2023-01-30T02:55:50.376Z,998.4
2023-01-30T02:56:51.396Z,998.4
2023-01-30T02:57:52.435Z,998.5
2023-01-30T02:58:53.439Z,998.5
2023-01-30T02:59:54.419Z,998.4
2023-01-30T03:00:55.410Z,998.4
2023-01-30T03:01:56.404Z,998.4
2023-01-30T03:02:57.487Z,998.4
2023-01-30T03:03:58.416Z,998.4
2023-01-30T03:04:59.439Z,998.4
2023-01-30T03:06:00.416Z,998.3
2023-01-30T03:07:01.483Z,998.4
2023-01-30T03:08:02.420Z,998.3
2023-01-30T03:09:03.455Z,998.3
2023-01-30T03:10:04.418Z,998.4
2023-01-30T03:11:05.428Z,998.4
2023-01-30T03:12:06.397Z,998.3
2023-01-30T03:13:07.416Z,998.3
2023-01-30T03:14:08.472Z,998.3
2023-01-30T03:15:09.435Z,998.2
2023-01-30T03:16:10.492Z,998.3
2023-01-30T03:17:11.417Z,998.3
2023-01-30T03:18:12.397Z,998.2
2023-01-30T03:19:13.337Z,998.2
2023-01-30T03:20:14.370Z,998.2
2023-01-30T03:21:15.417Z,998.1
2023-01-30T03:22:16.376Z,998.1
2023-01-30T03:23:17.418Z,998.1
2023-01-30T03:24:18.430Z,998.1
2023-01-30T03:25:19.817Z,998
2023-01-30T03:26:20.520Z,998.1
2023-01-30T03:27:21.356Z,998.2
2023-01-30T03:28:22.394Z,998
2023-01-30T03:29:23.376Z,998
2023-01-30T03:30:24.360Z,997.9
2023-01-30T03:31:25.501Z,997.8
2023-01-30T03:32:26.456Z,997.8
2023-01-30T03:33:27.436Z,997.9
2023-01-30T03:34:28.396Z,997.8
2023-01-30T03:35:29.416Z,997.8
2023-01-30T03:36:30.424Z,997.8
2023-01-30T03:37:31.377Z,997.9
2023-01-30T03:38:32.437Z,997.9
2023-01-30T03:39:33.380Z,997.9
2023-01-30T03:40:34.378Z,997.8
2023-01-30T03:41:35.401Z,997.7
2023-01-30T03:42:36.411Z,997.7
2023-01-30T03:43:37.425Z,997.7
2023-01-30T03:44:38.443Z,997.6
2023-01-30T03:45:39.437Z,997.2
2023-01-30T03:46:40.396Z,997.5
2023-01-30T03:47:41.382Z,997.5
2023-01-30T03:48:42.397Z,997.5
2023-01-30T03:49:43.397Z,997.5
2023-01-30T03:50:44.436Z,997.6
2023-01-30T03:51:45.476Z,997.7
2023-01-30T03:52:46.482Z,997.6
2023-01-30T03:53:47.441Z,997.6
2023-01-30T03:54:48.389Z,997.6
2023-01-30T03:55:49.430Z,997.6
2023-01-30T03:56:50.430Z,997.5
2023-01-30T03:57:51.416Z,996.8
2023-01-30T03:58:52.431Z,997.4
2023-01-30T03:59:53.458Z,997.5
2023-01-30T04:00:55.969Z,997.6
2023-01-30T04:01:55.395Z,997.6
2023-01-30T04:02:56.466Z,997.6
2023-01-30T04:03:57.416Z,997.5
2023-01-30T04:04:58.416Z,997.5
2023-01-30T04:05:59.408Z,997.6
2023-01-30T04:07:00.399Z,997.4
2023-01-30T04:08:01.417Z,996.7
2023-01-30T04:09:02.411Z,997.1
2023-01-30T04:10:03.404Z,997.2
2023-01-30T04:11:04.440Z,997.3
2023-01-30T04:12:05.391Z,997.2
2023-01-30T04:13:06.416Z,997.2
2023-01-30T04:14:07.391Z,997.1
2023-01-30T04:15:08.413Z,997.1
2023-01-30T04:16:09.419Z,997
2023-01-30T04:17:10.379Z,997
2023-01-30T04:18:11.366Z,996.8
2023-01-30T04:19:12.440Z,996.7
2023-01-30T04:20:13.418Z,996.7
2023-01-30T04:21:14.457Z,996.7
2023-01-30T04:22:15.442Z,996.7
2023-01-30T04:23:16.432Z,996.6
2023-01-30T04:24:17.415Z,996.7
2023-01-30T04:25:18.743Z,996.7
2023-01-30T04:26:19.604Z,996.6
2023-01-30T04:27:20.407Z,996.6
2023-01-30T04:28:21.438Z,996.5
2023-01-30T04:29:22.557Z,996.5
2023-01-30T04:30:23.544Z,996.5
2023-01-30T04:31:24.467Z,996.4
2023-01-30T04:32:25.489Z,996.4
2023-01-30T04:33:26.476Z,996.5
2023-01-30T04:34:27.430Z,996.4
2023-01-30T04:35:28.390Z,996.4
2023-01-30T04:36:29.455Z,996.5
2023-01-30T04:37:30.434Z,995.8
2023-01-30T04:38:31.576Z,996.3
2023-01-30T04:39:32.445Z,996.4
2023-01-30T04:40:33.437Z,996.3
2023-01-30T04:41:34.436Z,996.3
2023-01-30T04:42:35.405Z,996.4
2023-01-30T04:43:36.460Z,996.4
2023-01-30T04:44:37.437Z,996.3
2023-01-30T04:45:38.421Z,996.2
2023-01-30T04:46:39.446Z,996.2
2023-01-30T04:47:40.563Z,996.2
2023-01-30T04:48:41.412Z,996.1
2023-01-30T04:49:42.431Z,996.1
2023-01-30T04:50:43.401Z,996
2023-01-30T04:51:44.450Z,996
2023-01-30T04:52:45.407Z,995.1
2023-01-30T04:53:46.456Z,995.7
2023-01-30T04:54:47.405Z,995.8
2023-01-30T04:55:48.420Z,995.8
2023-01-30T04:56:49.419Z,995.9
2023-01-30T04:57:50.447Z,995.7
2023-01-30T04:58:51.478Z,995.8
2023-01-30T04:59:52.475Z,995.7
2023-01-30T05:00:53.551Z,995.8
2023-01-30T05:01:54.488Z,995.7
2023-01-30T05:02:55.455Z,995.7
2023-01-30T05:03:56.401Z,995.6
2023-01-30T05:04:57.439Z,995.7
2023-01-30T05:05:58.449Z,995.7
2023-01-30T05:06:59.477Z,995.8
2023-01-30T05:08:00.431Z,995.8
2023-01-30T05:09:01.428Z,995.7
2023-01-30T05:10:02.544Z,995.7
2023-01-30T05:11:03.419Z,995.7
2023-01-30T05:12:04.456Z,995.7
2023-01-30T05:13:05.437Z,995.7
2023-01-30T05:14:06.438Z,995.7
2023-01-30T05:15:07.557Z,995.7
2023-01-30T05:16:08.505Z,995.7
2023-01-30T05:17:09.670Z,995.8
2023-01-30T05:18:10.455Z,995.7
2023-01-30T05:19:11.499Z,995.7
2023-01-30T05:20:12.456Z,995.7
2023-01-30T05:21:13.480Z,995.6
2023-01-30T05:22:14.544Z,995.5
2023-01-30T05:23:15.437Z,995.5
2023-01-30T05:24:16.612Z,995.5
2023-01-30T05:25:17.882Z,995.5
2023-01-30T05:26:18.514Z,995.5
2023-01-30T05:27:19.455Z,995.5
2023-01-30T05:28:20.510Z,995.6
2023-01-30T05:29:21.476Z,995.4
2023-01-30T05:30:22.537Z,995.3
2023-01-30T05:31:23.643Z,995.3
2023-01-30T05:32:24.519Z,995.3
2023-01-30T05:33:25.473Z,995.4
2023-01-30T05:34:26.528Z,995.4
2023-01-30T05:35:27.485Z,995
2023-01-30T05:36:28.380Z,995.2
2023-01-30T05:37:29.385Z,995.3
2023-01-30T05:38:30.450Z,995.3
2023-01-30T05:39:31.458Z,995.3
2023-01-30T05:40:32.499Z,995.3
2023-01-30T05:41:33.457Z,995.3
2023-01-30T05:42:34.417Z,995.2
2023-01-30T05:43:35.477Z,995.2
2023-01-30T05:44:36.455Z,995.3
2023-01-30T05:45:37.557Z,995.2
2023-01-30T05:46:38.558Z,995.2
2023-01-30T05:47:39.454Z,995.1
2023-01-30T05:48:40.449Z,995.1
2023-01-30T05:49:41.476Z,995.1
2023-01-30T05:50:42.389Z,995.1
2023-01-30T05:51:43.496Z,995.1
2023-01-30T05:52:44.478Z,995
2023-01-30T05:53:45.461Z,995
2023-01-30T05:54:46.404Z,995.1
2023-01-30T05:55:47.458Z,994.7
2023-01-30T05:56:48.516Z,995
2023-01-30T05:57:49.439Z,995
2023-01-30T05:58:50.486Z,995.1
2023-01-30T05:59:51.459Z,995.1
2023-01-30T06:00:52.466Z,995
2023-01-30T06:01:53.476Z,995.1
2023-01-30T06:02:54.515Z,994.9
2023-01-30T06:03:55.539Z,994.9
2023-01-30T06:04:56.536Z,994.8
2023-01-30T06:05:57.436Z,994.8
2023-01-30T06:06:58.457Z,994.8
2023-01-30T06:07:59.438Z,994.8
2023-01-30T06:09:00.496Z,994.8
2023-01-30T06:10:01.489Z,994.9
2023-01-30T06:11:02.461Z,994.9
2023-01-30T06:12:03.462Z,994.9
2023-01-30T06:13:04.541Z,994.8
2023-01-30T06:14:05.477Z,994.9
2023-01-30T06:15:06.477Z,994.8
2023-01-30T06:16:07.516Z,994.8
2023-01-30T06:17:08.589Z,994.8
2023-01-30T06:18:09.520Z,994.8
2023-01-30T06:19:10.556Z,994.8
2023-01-30T06:20:11.507Z,994.8
2023-01-30T06:21:12.462Z,994.8
2023-01-30T06:22:13.540Z,994.9
2023-01-30T06:23:14.497Z,994.9
2023-01-30T06:24:15.536Z,994.8
2023-01-30T06:25:16.781Z,994.9
2023-01-30T06:26:17.485Z,994.9
2023-01-30T06:27:18.536Z,994.9
2023-01-30T06:28:19.519Z,994.9
2023-01-30T06:29:20.520Z,995
2023-01-30T06:30:21.503Z,994.9
2023-01-30T06:31:22.580Z,994.8
2023-01-30T06:32:23.515Z,994.7
2023-01-30T06:33:24.541Z,994.6
2023-01-30T06:34:25.542Z,994.7
2023-01-30T06:35:26.556Z,994.6
2023-01-30T06:36:27.519Z,994.6
2023-01-30T06:37:28.446Z,994.5
2023-01-30T06:38:29.556Z,994.4
2023-01-30T06:39:30.496Z,994.3
2023-01-30T06:40:31.515Z,994.3
2023-01-30T06:41:32.431Z,994.3
2023-01-30T06:42:33.457Z,994.3
2023-01-30T06:43:34.459Z,994.3
2023-01-30T06:44:35.484Z,994.4
2023-01-30T06:45:36.476Z,994.3
2023-01-30T06:46:37.474Z,994.3
2023-01-30T06:47:38.485Z,994.3
2023-01-30T06:48:39.523Z,994.3
2023-01-30T06:49:40.459Z,994.3
2023-01-30T06:50:41.478Z,994.4
2023-01-30T06:51:42.511Z,994.5
2023-01-30T06:52:43.587Z,994.4
2023-01-30T06:53:44.479Z,994.4
2023-01-30T06:54:45.598Z,994.4
2023-01-30T06:55:46.475Z,994.5
2023-01-30T06:56:47.498Z,994.4
2023-01-30T06:57:48.530Z,994.4
2023-01-30T06:58:49.497Z,994.4
2023-01-30T06:59:50.535Z,994.4
2023-01-30T07:00:51.538Z,994.4
2023-01-30T07:01:52.575Z,994.4
2023-01-30T07:02:53.581Z,994.4
2023-01-30T07:03:54.602Z,994.4
2023-01-30T07:04:55.478Z,994.3
2023-01-30T07:05:56.477Z,994.3
2023-01-30T07:06:57.497Z,993.5
2023-01-30T07:07:58.537Z,994.1
2023-01-30T07:08:59.577Z,994.3
2023-01-30T07:10:07.607Z,994.3
2023-01-30T07:11:01.500Z,994.3
2023-01-30T07:12:02.480Z,994.3
2023-01-30T07:13:03.551Z,994.3
2023-01-30T07:14:06.273Z,994.3
2023-01-30T07:15:05.690Z,994.2
2023-01-30T07:16:06.478Z,994.3
2023-01-30T07:17:07.497Z,994.3
2023-01-30T07:18:08.527Z,994.3
2023-01-30T07:19:09.537Z,994.3
2023-01-30T07:20:10.556Z,994.3
2023-01-30T07:21:11.550Z,994.3
2023-01-30T07:22:12.503Z,994.3
2023-01-30T07:23:13.533Z,994.3
2023-01-30T07:24:14.538Z,994.3
2023-01-30T07:25:15.615Z,994.4
2023-01-30T07:26:16.628Z,994.4
2023-01-30T07:27:17.573Z,994.3
2023-01-30T07:28:18.483Z,994.3
2023-01-30T07:29:19.557Z,994.3
2023-01-30T07:30:20.536Z,994.2
2023-01-30T07:31:21.501Z,994.4
2023-01-30T07:32:22.506Z,994.3
2023-01-30T07:33:23.537Z,994.2
2023-01-30T07:34:24.548Z,994.2
2023-01-30T07:35:25.547Z,994.3
2023-01-30T07:36:26.523Z,994.1
2023-01-30T07:37:27.560Z,994.1
2023-01-30T07:38:28.455Z,994.2
2023-01-30T07:39:29.554Z,994.2
2023-01-30T07:40:30.518Z,994.1
2023-01-30T07:41:31.559Z,994
2023-01-30T07:42:32.560Z,994.1
2023-01-30T07:43:33.580Z,994.1
2023-01-30T07:44:34.573Z,994.1
2023-01-30T07:45:35.591Z,994
2023-01-30T07:46:36.592Z,994
2023-01-30T07:47:37.499Z,994
2023-01-30T07:48:38.551Z,994.1
2023-01-30T07:49:39.517Z,994
2023-01-30T07:50:40.618Z,994
2023-01-30T07:51:41.561Z,993.9
2023-01-30T07:52:42.538Z,993.9
2023-01-30T07:53:43.487Z,993.9
2023-01-30T07:54:44.601Z,993.9
2023-01-30T07:55:45.540Z,993.9
2023-01-30T07:56:46.527Z,994
2023-01-30T07:57:47.542Z,993.9
2023-01-30T07:58:48.511Z,993.9
2023-01-30T07:59:49.500Z,993.9
2023-01-30T08:00:50.610Z,993.8
2023-01-30T08:01:51.500Z,993.9
2023-01-30T08:02:52.547Z,993.8
2023-01-30T08:03:53.563Z,993.8
2023-01-30T08:04:54.569Z,993.8
2023-01-30T08:05:55.555Z,993.8
2023-01-30T08:06:56.559Z,993.4
2023-01-30T08:07:57.591Z,993.7
2023-01-30T08:08:58.503Z,993.8
2023-01-30T08:09:59.505Z,993.7
2023-01-30T08:11:00.558Z,993.7
2023-01-30T08:12:01.584Z,993.7
2023-01-30T08:13:02.648Z,993.7
2023-01-30T08:14:03.559Z,993.7
2023-01-30T08:15:04.559Z,993.7
2023-01-30T08:16:05.598Z,993.6
2023-01-30T08:17:06.538Z,993.6
2023-01-30T08:18:07.631Z,993.6
2023-01-30T08:19:08.579Z,993.6
2023-01-30T08:20:09.608Z,993.6
2023-01-30T08:21:10.558Z,993.6
2023-01-30T08:22:11.561Z,993.6
2023-01-30T08:23:12.618Z,993.6
2023-01-30T08:24:13.601Z,993.5
2023-01-30T08:25:14.559Z,993.5
2023-01-30T08:26:15.600Z,993.5
2023-01-30T08:27:16.547Z,993.5
2023-01-30T08:28:17.640Z,993.4
2023-01-30T08:29:18.537Z,993.4
2023-01-30T08:30:20.132Z,993.4
2023-01-30T08:31:20.581Z,993.3
2023-01-30T08:32:21.602Z,993.3
2023-01-30T08:33:22.621Z,993.3
2023-01-30T08:34:23.600Z,993.2
2023-01-30T08:35:24.656Z,993.2
2023-01-30T08:36:25.522Z,993.2
2023-01-30T08:37:26.579Z,993.2
2023-01-30T08:38:27.699Z,993.1
2023-01-30T08:39:28.534Z,993.2
2023-01-30T08:40:29.515Z,993.2
2023-01-30T08:41:30.566Z,993.2
2023-01-30T08:42:31.619Z,993.2
2023-01-30T08:43:32.558Z,993.2
2023-01-30T08:44:33.532Z,993.2
2023-01-30T08:45:34.560Z,993.1
2023-01-30T08:46:35.590Z,993.2
2023-01-30T08:47:36.567Z,993.2
2023-01-30T08:48:49.049Z,993.2
2023-01-30T08:49:38.593Z,993.1
2023-01-30T08:50:39.599Z,993.1
2023-01-30T08:51:40.559Z,993.2
2023-01-30T08:52:41.598Z,993.1
2023-01-30T08:53:42.571Z,993.1
2023-01-30T08:54:43.546Z,993.1
2023-01-30T08:55:44.590Z,993.1
2023-01-30T08:56:45.617Z,993
2023-01-30T08:57:46.561Z,993.1
2023-01-30T08:58:47.559Z,993
2023-01-30T08:59:48.529Z,993.1
2023-01-30T09:00:49.827Z,993
2023-01-30T09:01:50.620Z,993.1
2023-01-30T09:02:51.692Z,993.2
2023-01-30T09:03:52.598Z,993.1
2023-01-30T09:04:53.622Z,993
2023-01-30T09:05:54.604Z,993
2023-01-30T09:06:55.597Z,993
2023-01-30T09:07:56.617Z,993
2023-01-30T09:08:57.626Z,993
2023-01-30T09:09:58.612Z,993
2023-01-30T09:10:59.658Z,993
2023-01-30T09:12:00.599Z,993
2023-01-30T09:13:01.697Z,993
2023-01-30T09:14:02.524Z,993
2023-01-30T09:15:03.645Z,992.9
2023-01-30T09:16:04.671Z,992.9
2023-01-30T09:17:06.664Z,993
2023-01-30T09:18:07.530Z,992.9
2023-01-30T09:19:08.557Z,992.9
2023-01-30T09:20:09.732Z,993
2023-01-30T09:21:10.639Z,992.9
2023-01-30T09:22:11.678Z,992.9
2023-01-30T09:23:12.659Z,992.9
2023-01-30T09:24:13.598Z,992.9
2023-01-30T09:25:14.718Z,993
2023-01-30T09:26:15.699Z,992.9
2023-01-30T09:27:16.556Z,992.9
2023-01-30T09:28:17.706Z,992.9
2023-01-30T09:29:18.666Z,992.9
2023-01-30T09:30:20.099Z,992.9
2023-01-30T09:31:20.618Z,992.9
2023-01-30T09:32:21.592Z,992.8
2023-01-30T09:33:22.639Z,992.8
2023-01-30T09:34:23.639Z,992.8
2023-01-30T09:35:24.571Z,992.8
2023-01-30T09:36:25.597Z,992.8
2023-01-30T09:37:26.537Z,992.8
2023-01-30T09:38:27.838Z,992.8
2023-01-30T09:39:28.556Z,992.8
2023-01-30T09:40:29.563Z,992.8
2023-01-30T09:41:30.599Z,992.8
2023-01-30T09:42:31.566Z,992.8
2023-01-30T09:43:32.637Z,992.7
2023-01-30T09:44:33.577Z,992.8
2023-01-30T09:45:34.616Z,992.7
2023-01-30T09:46:35.577Z,992.7
2023-01-30T09:47:36.597Z,992.6
2023-01-30T09:48:39.625Z,992.6
2023-01-30T09:49:38.664Z,992.7
2023-01-30T09:50:39.714Z,992.7
2023-01-30T09:51:40.557Z,992.6
2023-01-30T09:52:42.580Z,992.6
2023-01-30T09:53:43.640Z,992.6
2023-01-30T09:54:44.637Z,992.6
2023-01-30T09:55:45.645Z,992.5
2023-01-30T09:56:46.556Z,992.6
2023-01-30T09:57:47.620Z,992.6
2023-01-30T09:58:48.620Z,992.5
2023-01-30T09:59:49.636Z,992.5
2023-01-30T10:00:50.569Z,992.5
2023-01-30T10:01:51.583Z,992.5
2023-01-30T10:02:52.627Z,992.5
2023-01-30T10:03:53.620Z,992.5
2023-01-30T10:05:01.160Z,992.6
2023-01-30T10:05:55.622Z,992.5
2023-01-30T10:06:56.636Z,992.5
2023-01-30T10:07:57.671Z,992.5
2023-01-30T10:08:58.642Z,992.6
2023-01-30T10:09:59.677Z,992.5
2023-01-30T10:11:09.461Z,992.5
2023-01-30T10:12:01.596Z,992.5
2023-01-30T10:13:02.600Z,992.5
2023-01-30T10:14:03.597Z,992.4
2023-01-30T10:15:04.817Z,992.5
2023-01-30T10:16:06.734Z,992.4
2023-01-30T10:17:07.636Z,992.4
2023-01-30T10:18:08.644Z,992.4
2023-01-30T10:19:09.603Z,992.4
2023-01-30T10:20:10.656Z,992.4
2023-01-30T10:21:11.584Z,992.4
2023-01-30T10:22:12.610Z,992.3
2023-01-30T10:23:13.571Z,992.3
2023-01-30T10:24:14.559Z,992.3
2023-01-30T10:25:15.545Z,992.3
2023-01-30T10:26:16.587Z,992.2
2023-01-30T10:27:17.646Z,992.3
2023-01-30T10:28:18.605Z,992.2
2023-01-30T10:29:19.697Z,992.2
2023-01-30T10:30:21.124Z,992.2
2023-01-30T10:31:21.819Z,992.2
2023-01-30T10:32:22.587Z,992.3
2023-01-30T10:33:23.640Z,992.2
2023-01-30T10:34:24.597Z,992.2
2023-01-30T10:35:27.127Z,992.2
2023-01-30T10:36:26.616Z,992.2
2023-01-30T10:37:27.865Z,992.1
2023-01-30T10:38:28.600Z,992.2
2023-01-30T10:39:29.578Z,992.2
2023-01-30T10:40:30.653Z,992.2
2023-01-30T10:41:31.616Z,992.1
2023-01-30T10:42:32.636Z,992.1
2023-01-30T10:43:33.636Z,992.1
2023-01-30T10:44:34.597Z,992.1
2023-01-30T10:45:36.640Z,992
2023-01-30T10:46:36.668Z,992.1
2023-01-30T10:47:46.468Z,992
2023-01-30T10:48:43.901Z,992
2023-01-30T10:49:39.602Z,992
2023-01-30T10:50:40.615Z,991.9
2023-01-30T10:51:41.659Z,992
2023-01-30T10:52:42.736Z,991.6
2023-01-30T10:53:43.687Z,991.8
2023-01-30T10:54:44.682Z,991.8
2023-01-30T10:55:45.622Z,991.9
2023-01-30T10:56:46.597Z,991.9
2023-01-30T10:57:47.596Z,991.9
2023-01-30T10:58:48.555Z,991.9
2023-01-30T10:59:49.578Z,991.9
2023-01-30T11:00:50.623Z,991.9
2023-01-30T11:01:51.665Z,991.8
2023-01-30T11:02:52.640Z,991.8
2023-01-30T11:03:53.579Z,991.8
2023-01-30T11:04:54.634Z,991.8
2023-01-30T11:05:55.645Z,991.8
2023-01-30T11:06:56.661Z,991.8
2023-01-30T11:07:57.672Z,991.8
2023-01-30T11:08:58.640Z,991.8
2023-01-30T11:09:59.568Z,991.8
2023-01-30T11:11:00.657Z,991.7
2023-01-30T11:12:01.676Z,991.7
2023-01-30T11:13:02.657Z,991.7
2023-01-30T11:14:03.618Z,991.7
2023-01-30T11:15:04.669Z,991.7
2023-01-30T11:16:05.689Z,991
2023-01-30T11:17:06.669Z,991.5
2023-01-30T11:19:06.542Z,991.6
2023-01-30T11:19:23.915Z,991.6
2023-01-30T11:20:11.847Z,991.6
2023-01-30T11:21:11.633Z,991.6
2023-01-30T11:22:12.662Z,991.6
2023-01-30T11:23:13.615Z,991.5
2023-01-30T11:24:14.618Z,991.5
2023-01-30T11:25:16.043Z,991.5
2023-01-30T11:26:16.740Z,991.5
2023-01-30T11:27:17.708Z,991.4
2023-01-30T11:28:18.657Z,991.4
2023-01-30T11:29:19.622Z,991.4
2023-01-30T11:30:21.183Z,991.4
2023-01-30T11:31:35.213Z,991.3
2023-01-30T11:32:22.673Z,991.4
2023-01-30T11:33:23.678Z,991.4
2023-01-30T11:34:24.561Z,991.4
2023-01-30T11:35:25.640Z,991.4
2023-01-30T11:36:26.617Z,991.4
2023-01-30T11:37:28.001Z,991.3
2023-01-30T11:38:29.689Z,991.4
2023-01-30T11:39:30.695Z,991.4
2023-01-30T11:40:31.642Z,991.3
2023-01-30T11:41:32.697Z,991.3
2023-01-30T11:42:33.667Z,991.3
2023-01-30T11:43:34.657Z,991.3
2023-01-30T11:44:35.678Z,991.3
2023-01-30T11:45:36.675Z,991.3
2023-01-30T11:46:37.713Z,991.3
2023-01-30T11:47:38.963Z,991.2
2023-01-30T11:49:01.451Z,991.2
2023-01-30T11:49:47.518Z,991.1
2023-01-30T11:50:43.183Z,991.1
2023-01-30T11:51:42.695Z,991.1
2023-01-30T11:52:43.663Z,991.1
2023-01-30T11:53:44.676Z,991
2023-01-30T11:54:45.661Z,991
2023-01-30T11:55:56.452Z,991
2023-01-30T11:56:47.635Z,990.9
2023-01-30T11:57:48.699Z,991
2023-01-30T11:58:49.675Z,990.9
2023-01-30T11:59:50.654Z,991
2023-01-30T12:00:51.657Z,990.9
2023-01-30T12:01:52.748Z,990.8
2023-01-30T12:02:53.674Z,990.8
2023-01-30T12:03:54.719Z,990.8
2023-01-30T12:04:55.697Z,990.9
2023-01-30T12:05:56.720Z,990.9
2023-01-30T12:06:57.796Z,990.9
2023-01-30T12:07:58.720Z,990.8
2023-01-30T12:08:59.671Z,990.8
2023-01-30T12:10:00.652Z,990.8
2023-01-30T12:11:01.728Z,990.9
2023-01-30T12:12:02.684Z,990.8
2023-01-30T12:13:03.673Z,990.8
2023-01-30T12:14:04.678Z,990.7
2023-01-30T12:15:05.688Z,990.3
2023-01-30T12:16:06.783Z,990.6
2023-01-30T12:17:07.695Z,990.7
2023-01-30T12:18:08.660Z,990.8
2023-01-30T12:19:09.783Z,990.8
2023-01-30T12:20:10.651Z,990.8
2023-01-30T12:21:11.635Z,990.7
2023-01-30T12:22:12.641Z,990.7
2023-01-30T12:23:13.687Z,990.7
2023-01-30T12:24:14.661Z,990.7
2023-01-30T12:25:15.663Z,990.7
2023-01-30T12:26:16.760Z,990.7
2023-01-30T12:27:17.763Z,990.7
2023-01-30T12:28:18.678Z,990.7
2023-01-30T12:29:19.698Z,990.7
2023-01-30T12:30:21.025Z,990.7
2023-01-30T12:31:21.749Z,990.7
2023-01-30T12:32:22.656Z,990.6
2023-01-30T12:33:23.662Z,990.6
2023-01-30T12:34:25.840Z,990.6
2023-01-30T12:35:25.639Z,990.6
2023-01-30T12:36:26.658Z,990.6
2023-01-30T12:37:28.025Z,990.6
2023-01-30T12:38:29.685Z,990.6
2023-01-30T12:39:30.709Z,990.7
2023-01-30T12:40:31.677Z,990.6
2023-01-30T12:41:32.705Z,990.7
2023-01-30T12:42:33.836Z,990.6
2023-01-30T12:43:34.636Z,990.7
2023-01-30T12:44:35.717Z,990.7
2023-01-30T12:45:36.676Z,990.6
2023-01-30T12:46:37.743Z,990.7
2023-01-30T12:47:38.706Z,990.6
2023-01-30T12:48:43.828Z,990.6
2023-01-30T12:49:40.700Z,990.6
2023-01-30T12:50:41.697Z,990.6
2023-01-30T12:51:42.644Z,990.6
2023-01-30T12:52:43.635Z,990.6
2023-01-30T12:53:44.981Z,990.6
2023-01-30T12:54:45.647Z,990.7
2023-01-30T12:55:46.666Z,990.7
2023-01-30T12:56:48.334Z,990.7
2023-01-30T12:57:48.666Z,990.6
2023-01-30T12:58:49.638Z,990.6
2023-01-30T12:59:50.725Z,990.1
2023-01-30T13:00:51.715Z,990.5
2023-01-30T13:01:52.809Z,990.6
2023-01-30T13:02:53.710Z,990.7
2023-01-30T13:03:54.703Z,990.7
2023-01-30T13:05:01.984Z,990.6
2023-01-30T13:05:56.676Z,990.7
2023-01-30T13:06:57.776Z,990.6
2023-01-30T13:07:58.719Z,990.6
2023-01-30T13:08:59.684Z,990.7